createdAt,value
2017-11-15T00:00:25.906Z,5.43
2017-11-15T00:02:54.194Z,4.90
2017-11-15T00:05:22.454Z,4.80
2017-11-15T00:07:49.980Z,5.07
2017-11-15T00:10:17.487Z,4.87
2017-11-15T00:12:45.753Z,4.80
2017-11-15T00:15:16.008Z,4.53
2017-11-15T00:17:44.435Z,5.00
2017-11-15T00:20:11.936Z,4.43
2017-11-15T00:22:40.434Z,5.60
2017-11-15T00:25:08.898Z,5.33
2017-11-15T00:27:36.427Z,4.83
2017-11-15T00:30:04.699Z,4.20
2017-11-15T00:32:33.038Z,5.80
2017-11-15T00:35:00.887Z,4.90
2017-11-15T00:37:28.665Z,5.70
2017-11-15T00:39:56.180Z,5.03
2017-11-15T00:42:24.894Z,4.67
2017-11-15T00:44:52.791Z,5.30
2017-11-15T00:47:21.335Z,5.53
2017-11-15T00:49:48.871Z,5.70
2017-11-15T00:52:16.390Z,4.90
2017-11-15T00:54:43.894Z,4.60
2017-11-15T00:57:11.417Z,5.20
2017-11-15T00:59:39.679Z,5.03
2017-11-15T01:02:07.207Z,5.00
2017-11-15T01:04:34.737Z,4.97
2017-11-15T01:07:02.239Z,5.97
2017-11-15T01:09:29.758Z,4.97
2017-11-15T01:11:57.263Z,4.80
2017-11-15T01:14:24.771Z,5.07
2017-11-15T01:16:52.291Z,5.77
2017-11-15T01:19:21.531Z,4.50
2017-11-15T01:21:49.054Z,5.40
2017-11-15T01:24:17.319Z,5.00
2017-11-15T01:26:44.845Z,5.13
2017-11-15T01:29:12.339Z,4.63
2017-11-15T01:31:40.648Z,4.87
2017-11-15T01:34:08.151Z,5.20
2017-11-15T01:36:36.906Z,4.50
2017-11-15T01:39:04.873Z,5.27
2017-11-15T01:41:33.939Z,5.00
2017-11-15T01:44:01.935Z,5.03
2017-11-15T01:46:30.005Z,4.83
2017-11-15T01:48:57.973Z,4.97
2017-11-15T01:51:26.043Z,5.13
2017-11-15T01:53:55.035Z,5.07
2017-11-15T01:56:23.104Z,5.10
2017-11-15T01:58:51.089Z,5.40
2017-11-15T02:01:19.762Z,5.20
2017-11-15T02:03:48.648Z,4.90
2017-11-15T02:06:16.818Z,5.30
2017-11-15T02:08:44.791Z,4.90
2017-11-15T02:11:12.861Z,4.80
2017-11-15T02:13:41.645Z,4.80
2017-11-15T02:16:09.611Z,4.97
2017-11-15T02:18:37.683Z,4.83
2017-11-15T02:21:05.854Z,4.90
2017-11-15T02:23:33.924Z,4.87
2017-11-15T02:26:02.813Z,4.47
2017-11-15T02:28:30.884Z,4.60
2017-11-15T02:30:58.853Z,5.27
2017-11-15T02:33:27.845Z,4.83
2017-11-15T02:35:55.770Z,4.20
2017-11-15T02:38:24.858Z,5.10
2017-11-15T02:40:53.691Z,4.20
2017-11-15T02:43:21.762Z,4.70
2017-11-15T02:45:49.974Z,4.50
2017-11-15T02:48:18.823Z,4.93
2017-11-15T02:50:46.995Z,4.77
2017-11-15T02:53:15.178Z,4.20
2017-11-15T02:55:44.057Z,4.10
2017-11-15T02:58:12.027Z,4.30
2017-11-15T03:00:40.095Z,4.53
2017-11-15T03:03:10.213Z,4.63
2017-11-15T03:05:39.205Z,4.20
2017-11-15T03:08:07.279Z,4.20
2017-11-15T03:10:35.345Z,4.10
2017-11-15T03:13:03.316Z,4.70
2017-11-15T03:15:31.485Z,4.90
2017-11-15T03:18:00.476Z,5.50
2017-11-15T03:20:29.351Z,4.00
2017-11-15T03:22:57.405Z,4.00
2017-11-15T03:25:26.633Z,3.87
2017-11-15T03:27:55.428Z,4.40
2017-11-15T03:30:24.412Z,4.20
2017-11-15T03:32:52.277Z,3.90
2017-11-15T03:35:20.245Z,4.50
2017-11-15T03:37:47.918Z,4.43
2017-11-15T03:40:15.532Z,4.40
2017-11-15T03:42:43.183Z,4.30
2017-11-15T03:45:11.604Z,5.40
2017-11-15T03:47:39.401Z,4.47
2017-11-15T03:50:07.798Z,4.77
2017-11-15T03:52:36.144Z,4.20
2017-11-15T03:55:04.710Z,5.00
2017-11-15T03:57:33.184Z,5.10
2017-11-15T04:00:00.707Z,5.03
2017-11-15T04:02:29.024Z,3.93
2017-11-15T04:04:56.655Z,4.60
2017-11-15T04:07:24.235Z,4.23
2017-11-15T04:09:52.762Z,4.90
2017-11-15T04:12:21.112Z,4.47
2017-11-15T04:14:48.666Z,4.07
2017-11-15T04:17:16.186Z,4.10
2017-11-15T04:19:43.688Z,4.27
2017-11-15T04:22:11.210Z,3.70
2017-11-15T04:24:38.714Z,4.60
2017-11-15T04:27:06.239Z,3.90
2017-11-15T04:29:33.741Z,3.70
2017-11-15T04:32:01.262Z,3.70
2017-11-15T04:34:28.755Z,3.90
2017-11-15T04:36:57.198Z,3.90
2017-11-15T04:39:24.723Z,4.30
2017-11-15T04:41:52.242Z,4.57
2017-11-15T04:44:20.510Z,4.93
2017-11-15T04:46:48.034Z,3.37
2017-11-15T04:49:15.536Z,4.10
2017-11-15T04:51:43.043Z,4.70
2017-11-15T04:54:10.572Z,4.30
2017-11-15T04:56:38.834Z,4.00
2017-11-15T04:59:07.123Z,4.60
2017-11-15T05:01:35.412Z,4.23
2017-11-15T05:04:02.914Z,3.93
2017-11-15T05:06:30.415Z,3.97
2017-11-15T05:08:59.954Z,3.90
2017-11-15T05:11:27.446Z,4.00
2017-11-15T05:13:54.962Z,4.03
2017-11-15T05:16:22.496Z,4.10
2017-11-15T05:18:50.008Z,4.10
2017-11-15T05:21:17.508Z,4.67
2017-11-15T05:23:45.027Z,4.00
2017-11-15T05:26:12.525Z,4.00
2017-11-15T05:28:40.053Z,4.77
2017-11-15T05:31:08.363Z,3.80
2017-11-15T05:33:35.871Z,3.97
2017-11-15T05:36:03.391Z,5.00
2017-11-15T05:38:30.896Z,3.90
2017-11-15T05:40:58.424Z,4.77
2017-11-15T05:43:25.926Z,4.13
2017-11-15T05:45:54.222Z,4.73
2017-11-15T05:48:21.722Z,4.20
2017-11-15T05:50:49.232Z,4.40
2017-11-15T05:53:16.756Z,4.20
2017-11-15T05:55:44.262Z,3.93
2017-11-15T05:58:11.783Z,3.90
2017-11-15T06:00:40.055Z,3.87
2017-11-15T06:03:08.347Z,3.53
2017-11-15T06:05:35.852Z,4.10
2017-11-15T06:08:03.350Z,4.00
2017-11-15T06:10:31.644Z,4.77
2017-11-15T06:12:59.210Z,4.47
2017-11-15T06:15:27.554Z,4.20
2017-11-15T06:17:55.063Z,3.70
2017-11-15T06:20:23.353Z,3.73
2017-11-15T06:22:51.786Z,3.90
2017-11-15T06:25:19.376Z,4.50
2017-11-15T06:27:46.972Z,4.10
2017-11-15T06:30:14.475Z,4.43
2017-11-15T06:32:42.019Z,4.53
2017-11-15T06:35:09.549Z,4.20
2017-11-15T06:37:37.825Z,4.17
2017-11-15T06:40:05.258Z,4.53
2017-11-15T06:42:32.763Z,3.93
2017-11-15T06:45:00.283Z,3.30
2017-11-15T06:47:27.778Z,3.90
2017-11-15T06:49:56.227Z,3.93
2017-11-15T06:52:24.498Z,3.70
2017-11-15T06:54:52.109Z,4.47
2017-11-15T06:57:20.998Z,4.40
2017-11-15T06:59:48.910Z,4.50
2017-11-15T07:02:16.831Z,4.00
2017-11-15T07:04:44.376Z,3.60
2017-11-15T07:07:11.919Z,3.93
2017-11-15T07:09:40.427Z,3.77
2017-11-15T07:12:09.422Z,3.70
2017-11-15T07:14:37.283Z,4.20
2017-11-15T07:17:05.016Z,3.90
2017-11-15T07:19:32.642Z,3.60
2017-11-15T07:22:01.294Z,3.70
2017-11-15T07:24:29.421Z,3.57
2017-11-15T07:26:57.429Z,4.30
2017-11-15T07:29:25.547Z,3.93
2017-11-15T07:31:54.593Z,3.70
2017-11-15T07:34:22.665Z,4.13
2017-11-15T07:36:50.741Z,18.50
2017-11-15T07:39:18.702Z,25.13
2017-11-15T07:41:46.670Z,22.17
2017-11-15T07:44:14.535Z,20.97
2017-11-15T07:46:43.732Z,22.77
2017-11-15T07:49:11.698Z,22.83
2017-11-15T07:51:39.571Z,19.90
2017-11-15T07:54:08.352Z,24.23
2017-11-15T07:56:35.916Z,21.30
2017-11-15T07:59:03.414Z,18.60
2017-11-15T08:01:30.942Z,19.47
2017-11-15T08:03:58.456Z,19.33
2017-11-15T08:06:25.992Z,16.77
2017-11-15T08:08:55.226Z,17.07
2017-11-15T08:11:23.702Z,20.23
2017-11-15T08:13:51.207Z,16.73
2017-11-15T08:16:18.739Z,14.37
2017-11-15T08:18:46.255Z,14.37
2017-11-15T08:21:14.527Z,14.60
2017-11-15T08:23:42.831Z,15.47
2017-11-15T08:26:11.311Z,13.27
2017-11-15T08:28:38.816Z,12.97
2017-11-15T08:31:09.812Z,14.13
2017-11-15T08:33:37.317Z,13.23
2017-11-15T08:36:04.843Z,13.80
2017-11-15T08:38:32.356Z,12.00
2017-11-15T08:41:00.626Z,11.30
2017-11-15T08:43:28.920Z,10.67
2017-11-15T08:45:56.427Z,11.17
2017-11-15T08:48:23.958Z,11.50
2017-11-15T08:50:51.466Z,10.87
2017-11-15T08:53:19.759Z,11.97
2017-11-15T08:55:47.283Z,11.30
2017-11-15T08:58:14.793Z,10.93
2017-11-15T09:00:42.339Z,10.47
2017-11-15T09:03:10.803Z,9.77
2017-11-15T09:05:38.348Z,9.63
2017-11-15T09:08:06.625Z,10.50
2017-11-15T09:10:34.922Z,9.47
2017-11-15T09:13:02.426Z,9.43
2017-11-15T09:15:29.958Z,8.43
2017-11-15T09:17:57.459Z,8.50
2017-11-15T09:20:25.733Z,8.30
2017-11-15T09:22:53.258Z,8.90
2017-11-15T09:25:20.762Z,9.17
2017-11-15T09:27:49.058Z,8.53
2017-11-15T09:30:16.565Z,8.20
2017-11-15T09:32:44.110Z,8.67
2017-11-15T09:35:11.610Z,9.00
2017-11-15T09:37:39.882Z,7.77
2017-11-15T09:40:08.171Z,8.83
2017-11-15T09:42:35.670Z,7.77
2017-11-15T09:45:03.204Z,9.10
2017-11-15T09:47:30.708Z,7.87
2017-11-15T09:49:58.237Z,7.40
2017-11-15T09:52:25.741Z,7.70
2017-11-15T09:54:56.001Z,7.70
2017-11-15T09:57:23.511Z,7.63
2017-11-15T09:59:51.058Z,6.80
2017-11-15T10:02:18.675Z,7.00
2017-11-15T10:04:47.151Z,6.87
2017-11-15T10:07:14.676Z,7.20
2017-11-15T10:09:43.830Z,6.97
2017-11-15T10:12:11.374Z,8.23
2017-11-15T10:14:38.879Z,6.30
2017-11-15T10:17:07.197Z,8.17
2017-11-15T10:19:34.699Z,6.83
2017-11-15T10:22:03.159Z,7.00
2017-11-15T10:24:30.688Z,7.47
2017-11-15T10:26:58.195Z,6.40
2017-11-15T10:29:25.738Z,6.37
2017-11-15T10:31:53.243Z,5.90
2017-11-15T10:34:20.779Z,8.07
2017-11-15T10:36:49.046Z,5.63
2017-11-15T10:39:16.548Z,6.67
2017-11-15T10:41:44.087Z,6.90
2017-11-15T10:44:11.601Z,5.73
2017-11-15T10:46:39.127Z,6.33
2017-11-15T10:49:06.647Z,5.93
2017-11-15T10:51:34.944Z,6.10
2017-11-15T10:54:02.467Z,7.13
2017-11-15T10:56:30.750Z,6.53
2017-11-15T10:59:01.020Z,5.90
2017-11-15T11:01:28.515Z,5.73
2017-11-15T11:03:56.039Z,6.37
2017-11-15T11:06:23.550Z,5.73
2017-11-15T11:08:51.843Z,7.20
2017-11-15T11:11:19.356Z,6.00
2017-11-15T11:13:46.895Z,5.87
2017-11-15T11:16:14.443Z,5.90
2017-11-15T11:18:42.891Z,5.57
2017-11-15T11:21:11.375Z,6.00
2017-11-15T11:23:38.879Z,5.83
2017-11-15T11:26:07.188Z,5.33
2017-11-15T11:28:35.468Z,6.10
2017-11-15T11:31:03.768Z,4.77
2017-11-15T11:33:31.286Z,5.10
2017-11-15T11:35:59.569Z,5.50
2017-11-15T11:38:27.100Z,6.03
2017-11-15T11:40:54.600Z,5.90
2017-11-15T11:43:22.123Z,5.40
2017-11-15T11:45:49.630Z,5.77
2017-11-15T11:48:17.161Z,4.53
2017-11-15T11:50:45.430Z,5.27
2017-11-15T11:53:13.747Z,6.80
2017-11-15T11:55:41.263Z,5.30
2017-11-15T11:58:09.528Z,4.90
2017-11-15T12:00:37.831Z,5.30
2017-11-15T12:03:05.334Z,5.37
2017-11-15T12:05:32.857Z,5.70
2017-11-15T12:08:01.315Z,5.77
2017-11-15T12:10:29.607Z,5.20
2017-11-15T12:12:57.112Z,5.40
2017-11-15T12:15:25.549Z,5.53
2017-11-15T12:17:53.079Z,5.50
2017-11-15T12:20:21.350Z,4.83
2017-11-15T12:22:51.608Z,4.17
2017-11-15T12:25:19.113Z,5.00
2017-11-15T12:27:49.367Z,5.07
2017-11-15T12:30:16.871Z,5.17
2017-11-15T12:32:44.404Z,5.50
2017-11-15T12:35:11.913Z,5.03
2017-11-15T12:37:40.179Z,4.80
2017-11-15T12:40:07.698Z,5.97
2017-11-15T12:42:35.203Z,4.47
2017-11-15T12:45:03.499Z,5.10
2017-11-15T12:47:30.999Z,5.13
2017-11-15T12:49:58.519Z,4.40
2017-11-15T12:52:26.019Z,5.07
2017-11-15T12:54:53.515Z,4.90
2017-11-15T12:57:21.800Z,4.80
2017-11-15T12:59:49.308Z,4.90
2017-11-15T13:02:16.836Z,4.97
2017-11-15T13:04:44.339Z,5.20
2017-11-15T13:07:11.858Z,5.00
2017-11-15T13:09:39.361Z,5.47
2017-11-15T13:12:07.650Z,4.73
2017-11-15T13:14:35.924Z,4.80
2017-11-15T13:17:04.190Z,4.50
2017-11-15T13:19:32.487Z,5.20
2017-11-15T13:21:59.990Z,4.80
2017-11-15T13:24:27.515Z,5.40
2017-11-15T13:26:55.982Z,4.73
2017-11-15T13:29:23.519Z,4.97
2017-11-15T13:31:51.782Z,4.80
2017-11-15T13:34:21.278Z,4.37
2017-11-15T13:36:48.796Z,4.27
2017-11-15T13:39:16.300Z,4.60
2017-11-15T13:41:44.607Z,4.27
2017-11-15T13:44:12.103Z,5.10
2017-11-15T13:46:39.652Z,4.17
2017-11-15T13:49:07.155Z,4.40
2017-11-15T13:51:35.446Z,4.27
2017-11-15T13:54:02.963Z,3.93
2017-11-15T13:56:30.471Z,4.63
2017-11-15T13:58:57.998Z,5.00
2017-11-15T14:01:26.279Z,5.23
2017-11-15T14:03:54.571Z,5.37
2017-11-15T14:06:22.073Z,3.93
2017-11-15T14:08:49.615Z,5.03
2017-11-15T14:11:18.100Z,4.50
2017-11-15T14:13:45.603Z,5.03
2017-11-15T14:16:13.898Z,4.00
2017-11-15T14:18:42.383Z,3.97
2017-11-15T14:21:09.894Z,4.10
2017-11-15T14:23:37.414Z,4.23
2017-11-15T14:26:04.910Z,4.50
2017-11-15T14:28:34.370Z,4.20
2017-11-15T14:31:01.890Z,4.00
2017-11-15T14:33:30.191Z,4.67
2017-11-15T14:35:57.695Z,4.93
2017-11-15T14:38:25.266Z,4.50
2017-11-15T14:40:52.766Z,5.00
2017-11-15T14:43:20.280Z,4.80
2017-11-15T14:45:47.802Z,4.50
2017-11-15T14:48:15.306Z,4.33
2017-11-15T14:50:43.595Z,4.70
2017-11-15T14:53:11.867Z,4.40
2017-11-15T14:55:40.131Z,4.37
2017-11-15T14:58:08.423Z,4.60
2017-11-15T15:00:35.922Z,3.83
2017-11-15T15:03:03.463Z,4.90
2017-11-15T15:05:30.969Z,4.83
2017-11-15T15:07:59.359Z,3.60
2017-11-15T15:10:27.636Z,3.57
2017-11-15T15:12:55.923Z,3.87
2017-11-15T15:15:23.448Z,4.50
2017-11-15T15:17:50.950Z,4.60
2017-11-15T15:20:18.475Z,3.90
2017-11-15T15:22:46.747Z,4.40
2017-11-15T15:25:14.279Z,4.77
2017-11-15T15:27:41.783Z,4.00
2017-11-15T15:30:09.307Z,4.30
2017-11-15T15:32:36.822Z,4.87
2017-11-15T15:35:04.369Z,4.53
2017-11-15T15:37:31.876Z,3.90
2017-11-15T15:40:00.149Z,4.37
2017-11-15T15:42:29.193Z,4.07
2017-11-15T15:44:56.699Z,4.23
2017-11-15T15:47:24.223Z,4.23
2017-11-15T15:49:51.728Z,4.10
2017-11-15T15:52:20.023Z,3.80
2017-11-15T15:54:47.535Z,4.00
2017-11-15T15:57:15.043Z,3.90
2017-11-15T15:59:42.565Z,4.50
2017-11-15T16:02:10.066Z,4.57
2017-11-15T16:04:38.566Z,3.90
2017-11-15T16:07:06.065Z,4.00
2017-11-15T16:09:33.578Z,4.77
2017-11-15T16:12:01.074Z,3.80
2017-11-15T16:14:28.623Z,4.07
2017-11-15T16:16:56.123Z,4.40
2017-11-15T16:19:23.628Z,4.13
2017-11-15T16:21:51.160Z,4.20
2017-11-15T16:24:19.598Z,5.00
2017-11-15T16:26:47.883Z,4.03
2017-11-15T16:29:16.147Z,4.73
2017-11-15T16:31:44.443Z,3.77
2017-11-15T16:34:11.939Z,3.50
2017-11-15T16:36:41.409Z,3.80
2017-11-15T16:39:08.925Z,3.97
2017-11-15T16:41:37.190Z,3.70
2017-11-15T16:44:06.667Z,3.70
2017-11-15T16:46:34.167Z,4.17
2017-11-15T16:49:02.465Z,4.30
2017-11-15T16:51:29.963Z,3.53
2017-11-15T16:53:57.492Z,3.97
2017-11-15T16:56:24.994Z,4.03
2017-11-15T16:58:52.520Z,4.83
2017-11-15T17:01:20.046Z,4.43
2017-11-15T17:03:47.566Z,4.33
2017-11-15T17:06:15.090Z,4.37
2017-11-15T17:08:42.600Z,4.23
2017-11-15T17:11:10.900Z,4.20
2017-11-15T17:13:38.408Z,3.90
2017-11-15T17:16:05.931Z,4.40
2017-11-15T17:18:34.390Z,3.53
2017-11-15T17:21:01.902Z,4.07
2017-11-15T17:23:29.423Z,4.00
2017-11-15T17:25:56.943Z,3.80
2017-11-15T17:28:25.257Z,3.90
2017-11-15T17:30:52.766Z,4.40
2017-11-15T17:33:20.298Z,4.20
2017-11-15T17:35:47.799Z,4.00
2017-11-15T17:38:16.066Z,4.10
2017-11-15T17:40:44.354Z,4.57
2017-11-15T17:43:11.866Z,4.20
2017-11-15T17:45:39.392Z,4.10
2017-11-15T17:48:07.847Z,3.93
2017-11-15T17:50:35.376Z,3.40
2017-11-15T17:53:02.875Z,3.73
2017-11-15T17:55:30.375Z,3.77
2017-11-15T17:57:57.911Z,4.47
2017-11-15T18:00:26.363Z,4.00
2017-11-15T18:02:53.886Z,4.63
2017-11-15T18:05:21.389Z,3.57
2017-11-15T18:07:48.911Z,3.97
2017-11-15T18:10:17.185Z,4.20
2017-11-15T18:12:45.484Z,3.97
2017-11-15T18:15:12.991Z,4.90
2017-11-15T18:17:40.495Z,4.20
2017-11-15T18:20:08.023Z,4.17
2017-11-15T18:22:36.295Z,4.60
2017-11-15T18:25:03.823Z,4.10
2017-11-15T18:27:31.347Z,3.70
2017-11-15T18:29:58.862Z,3.97
2017-11-15T18:32:26.362Z,3.93
2017-11-15T18:34:53.890Z,4.00
2017-11-15T18:37:22.162Z,4.20
2017-11-15T18:39:50.435Z,4.90
2017-11-15T18:42:17.956Z,4.00
2017-11-15T18:44:45.478Z,4.47
2017-11-15T18:47:12.999Z,4.10
2017-11-15T18:49:41.512Z,4.03
2017-11-15T18:52:09.805Z,4.47
2017-11-15T18:54:37.574Z,4.27
2017-11-15T18:57:05.541Z,3.83
2017-11-15T18:59:33.412Z,4.30
2017-11-15T19:02:02.296Z,4.50
2017-11-15T19:04:32.011Z,4.00
2017-11-15T19:07:00.997Z,4.87
2017-11-15T19:09:28.966Z,4.50
2017-11-15T19:11:56.832Z,4.50
2017-11-15T19:14:25.726Z,4.30
2017-11-15T19:16:53.640Z,3.73
2017-11-15T19:19:22.370Z,4.80
2017-11-15T19:21:50.183Z,5.00
2017-11-15T19:24:18.102Z,4.27
2017-11-15T19:26:46.171Z,3.60
2017-11-15T19:29:14.149Z,3.97
2017-11-15T19:31:43.240Z,4.10
2017-11-15T19:34:12.122Z,4.43
2017-11-15T19:36:39.993Z,5.13
2017-11-15T19:39:08.980Z,4.67
2017-11-15T19:41:36.895Z,3.90
2017-11-15T19:44:04.916Z,4.40
2017-11-15T19:46:32.824Z,3.80
2017-11-15T19:49:00.548Z,4.30
2017-11-15T19:51:28.409Z,4.30
2017-11-15T19:53:56.312Z,3.90
2017-11-15T19:56:24.960Z,3.77
2017-11-15T19:58:52.823Z,3.60
2017-11-15T20:01:20.689Z,4.60
2017-11-15T20:03:48.273Z,3.30
2017-11-15T20:06:16.153Z,4.17
2017-11-15T20:08:44.457Z,3.80
2017-11-15T20:11:12.727Z,3.60
2017-11-15T20:13:41.020Z,3.73
2017-11-15T20:16:08.551Z,3.97
2017-11-15T20:18:36.087Z,4.43
2017-11-15T20:21:03.594Z,4.63
2017-11-15T20:23:31.126Z,3.93
2017-11-15T20:25:59.391Z,3.73
2017-11-15T20:28:26.891Z,4.37
2017-11-15T20:30:54.416Z,3.60
2017-11-15T20:33:23.619Z,3.57
2017-11-15T20:35:51.916Z,3.83
2017-11-15T20:38:19.422Z,3.43
2017-11-15T20:40:46.947Z,3.70
2017-11-15T20:43:14.458Z,3.23
2017-11-15T20:45:43.088Z,3.40
2017-11-15T20:48:10.690Z,3.47
2017-11-15T20:50:40.184Z,3.83
2017-11-15T20:53:08.458Z,3.27
2017-11-15T20:55:35.975Z,3.73
2017-11-15T20:58:03.473Z,3.40
2017-11-15T21:00:30.971Z,3.60
2017-11-15T21:02:58.487Z,3.57
2017-11-15T21:05:26.015Z,3.60
2017-11-15T21:07:53.566Z,2.73
2017-11-15T21:10:22.018Z,3.37
2017-11-15T21:12:49.521Z,3.33
2017-11-15T21:15:17.083Z,3.10
2017-11-15T21:17:44.594Z,3.30
2017-11-15T21:20:12.091Z,3.57
2017-11-15T21:22:39.625Z,3.27
2017-11-15T21:25:07.122Z,3.10
2017-11-15T21:27:37.282Z,2.97
2017-11-15T21:30:04.814Z,3.17
2017-11-15T21:32:33.088Z,3.00
2017-11-15T21:35:00.594Z,3.30
2017-11-15T21:37:28.119Z,3.30
2017-11-15T21:39:56.378Z,3.27
2017-11-15T21:42:23.900Z,2.90
2017-11-15T21:44:51.399Z,3.17
2017-11-15T21:47:19.699Z,2.97
2017-11-15T21:49:47.264Z,3.17
2017-11-15T21:52:14.768Z,2.53
2017-11-15T21:54:42.285Z,3.10
2017-11-15T21:57:09.815Z,2.70
2017-11-15T21:59:38.087Z,3.30
2017-11-15T22:02:06.384Z,3.10
2017-11-15T22:04:34.264Z,2.70
2017-11-15T22:07:01.814Z,3.30
2017-11-15T22:09:29.327Z,2.80
2017-11-15T22:11:58.361Z,3.00
2017-11-15T22:14:25.858Z,3.07
2017-11-15T22:16:53.387Z,2.60
2017-11-15T22:19:20.914Z,2.43
2017-11-15T22:21:48.998Z,2.63
2017-11-15T22:24:16.519Z,3.60
2017-11-15T22:26:44.046Z,3.00
2017-11-15T22:29:11.581Z,3.13
2017-11-15T22:31:39.084Z,3.20
2017-11-15T22:34:07.550Z,3.37
2017-11-15T22:36:35.075Z,2.80
2017-11-15T22:39:02.574Z,3.23
2017-11-15T22:41:30.098Z,3.40
2017-11-15T22:43:58.565Z,2.90
2017-11-15T22:46:26.097Z,2.70
2017-11-15T22:48:54.363Z,2.77
2017-11-15T22:51:22.640Z,2.47
2017-11-15T22:53:50.931Z,3.10
2017-11-15T22:56:18.449Z,2.77
2017-11-15T22:58:45.973Z,3.10
2017-11-15T23:01:13.649Z,2.60
2017-11-15T23:03:41.292Z,3.20
2017-11-15T23:06:08.965Z,2.40
2017-11-15T23:08:36.714Z,2.63
2017-11-15T23:11:04.581Z,2.90
2017-11-15T23:13:32.110Z,2.57
2017-11-15T23:16:00.395Z,2.60
2017-11-15T23:18:28.077Z,2.33
2017-11-15T23:20:55.611Z,2.30
2017-11-15T23:23:23.111Z,2.80
2017-11-15T23:25:50.635Z,2.70
2017-11-15T23:28:18.407Z,3.33
2017-11-15T23:30:46.018Z,2.57
2017-11-15T23:33:14.328Z,3.10
2017-11-15T23:35:41.859Z,2.40
2017-11-15T23:38:10.148Z,3.63
2017-11-15T23:40:37.651Z,3.37
2017-11-15T23:43:05.162Z,3.13
2017-11-15T23:45:33.451Z,4.00
2017-11-15T23:48:01.331Z,2.80
2017-11-15T23:50:29.300Z,3.07
2017-11-15T23:52:58.803Z,2.93
2017-11-15T23:55:26.770Z,2.50
2017-11-15T23:57:55.659Z,3.37
